Tiempo atmosférico en la estación meteorológica de Astorga, León (919 m.)



Fecha
DESCASC
Temp. máxima en grados centígrados (hora)
DESCASC
Temp. mínima en grados centígrados (hora)
DESCASC
Temp. media en grados centígrados
DESCASC
Racha de viento máxima en m/sg (hora)
DESCASC
Velocidad máxima media en intervalos de 10 minutos(hora)
DESCASC
Precipitaciones diarias en mm
DESCASC
Precipitaciones de 00:00 a 06:00 en mm
DESCASC
Precipitaciones de 06:00 a 12:00 en mm
DESCASC
Precipitaciones de 12:00 a 18:00 en mm
DESCASC
Precipitaciones de 18:00 a 24:00 en mm
DESCASC
20-09-2018 30.1 (17:10) 9.6 (08:30) 19.9 11.39 (15:00) 6.94 (15:10) 0 0 0 0 0
19-09-2018 30.6 (17:40) 10.1 (08:10) 20.4 5.56 (17:50) 3.61 (18:00) 0 0 0 0 0
18-09-2018 29.3 (16:30) 10.4 (08:20) 19.8 8.06 (17:00) 5.56 (18:00) 0 0 0 0 0
17-09-2018 30.1 (17:00) 10.1 (05:50) 20.1 11.39 (15:30) 6.94 (15:30) 0 0 0 0 0
16-09-2018 30.3 (15:40) 12.3 (00:00) 21.3 6.39 (17:00) 3.89 (17:00) 0 0 0 0 0
15-09-2018 30.4 (17:20) 11.2 (00:00) 20.8 6.94 (22:40) 4.44 (22:30) 0 0 0 0 0
14-09-2018 30.3 (18:10) 11.1 (00:00) 20.7 6.11 (14:20) 3.33 (22:10) 0 0 0 0 0
13-09-2018 31.1 (18:00) 10.7 (00:00) 20.9 6.39 (15:50) 4.17 (16:20) 0 0 0 0 0
12-09-2018 30.8 (16:50) 11.6 (00:00) 21.2 7.78 (18:50) 4.72 (18:50) 0 0 0 0 0
11-09-2018 31 (18:10) 10.4 (00:00) 20.7 8.06 (00:30) 3.33 (08:00) 0 0 0 0 0
10-09-2018 27.9 (17:00) 8.8 (00:00) 18.3 5.56 (17:00) 3.06 (19:30) 0 0 0 0 0
09-09-2018 26.6 (15:20) 10.5 (00:00) 18.6 9.72 (17:00) 5.28 (17:10) 9 0.2 0 8.6 0.2
08-09-2018 -- (--) -- (--) -- -- (--) -- (--) 4.2 0 0 0 4.2
07-09-2018 25 (17:30) 9 (00:00) 17 6.39 (23:00) 3.33 (18:20) 0 0 0 0 0
06-09-2018 23.8 (16:40) 9.7 (00:00) 16.7 9.17 (15:00) 6.67 (17:40) 0 0 0 0 0
05-09-2018 22.5 (15:30) 11.8 (00:00) 17.2 9.72 (09:30) 7.22 (09:30) 7.4 0.2 7 0.2 0
04-09-2018 27.1 (15:00) 13.8 (00:00) 20.5 9.72 (02:40) 7.5 (02:40) 0.6 0.4 0 0 0.2
03-09-2018 29.3 (18:00) 13.8 (00:00) 21.5 12.5 (20:50) 7.5 (20:50) 1.6 0.2 0 0 1.4
02-09-2018 32.9 (17:40) 11.6 (00:00) 22.3 10.56 (19:40) 6.94 (19:40) 2.6 0 0 0 2.6
01-09-2018 30.9 (18:40) 10.9 (00:00) 20.9 6.67 (17:30) 3.33 (15:20) 0 0 0 0 0
31-08-2018 30.4 (17:30) 10.4 (00:00) 20.4 6.39 (18:20) 3.61 (18:20) 0 0 0 0 0
30-08-2018 31.1 (17:40) 10.4 (00:00) 20.8 7.78 (19:10) 5 (19:10) 0 0 0 0 0
29-08-2018 30.1 (18:20) 12.1 (00:00) 21.1 6.39 (01:40) 4.17 (17:30) 0 0 0 0 0
28-08-2018 30.3 (16:50) 15.7 (00:00) 23 9.44 (09:40) 5.28 (09:40) 0.2 0 0 0.2 0
27-08-2018 -- (--) -- (--) -- -- (--) -- (--) 0 0 0 0 0
26-08-2018 31 (18:10) 9.3 (00:00) 20.2 6.67 (19:20) 4.72 (19:10) 0 0 0 0 0
25-08-2018 28.8 (16:30) 8.3 (00:00) 18.5 8.33 (17:50) 3.89 (17:00) 0 0 0 0 0

Gráficas

Temp. máximas Temp. mínimas Temp. medias Precipitaciones Rachas de viento máximas Velocidades máximas media en intervalos de 10 minutos

Datos horarios

Fecha y hora oficial Temperatura (ºC) Velocidad del viento (km/h) Dirección del viento Racha (km/h) Dirección de racha Precipitación (mm) Presión (hPa) Tendencia (hPa) Humedad (%)
2018-09-23 23:00:00 20.2 2 Oeste 9 Nordeste 0 -- -- 63
2018-09-23 22:00:00 21.5 4 Este 8 Este 0 -- -- 59
2018-09-23 21:00:00 22.7 5 Noroeste 23 Noroeste 0 -- -- 54
2018-09-23 20:00:00 26.2 14 Noroeste 26 Noroeste 0 -- -- 41
2018-09-23 19:00:00 29 15 Noroeste 28 Noroeste 0 -- -- 36
2018-09-23 18:00:00 30.3 15 Noroeste 26 Noroeste 0 -- -- 34
2018-09-23 17:00:00 31.2 16 Noroeste 32 Noroeste 0 -- -- 27
2018-09-23 16:00:00 31.8 16 Noroeste 30 Norte 0 -- -- 26
2018-09-23 15:00:00 31.2 8 Nordeste 19 Sudeste 0 -- -- 33
2018-09-23 14:00:00 28.3 11 Sur 18 Sur 0 -- -- 44
2018-09-23 13:00:00 27.1 7 Sur 12 Sur 0 -- -- 47
2018-09-23 12:00:00 26.8 3 Nordeste 10 Norte 0 -- -- 47
2018-09-23 11:00:00 24.6 5 Norte 9 Norte 0 -- -- 54
2018-09-23 10:00:00 20.5 4 Nordeste 6 Norte 0 -- -- 64
2018-09-23 09:00:00 15.1 4 Noroeste 12 Norte 0 -- -- 81
2018-09-23 08:00:00 12 9 Norte 13 Norte 0 -- -- 90
2018-09-23 07:00:00 14.4 6 Noroeste 11 Noroeste 0 -- -- 85
2018-09-23 06:00:00 15.1 4 Norte 12 Norte 0 -- -- 83
2018-09-23 05:00:00 15.3 0 Calma 8 Este 0 -- -- 81
2018-09-23 04:00:00 15.6 0 Calma 8 Norte 0 -- -- 78
2018-09-23 03:00:00 16.1 7 Norte 9 Norte 0 -- -- 77
2018-09-23 02:00:00 17 6 Norte 7 Norte 0 -- -- 73
2018-09-23 01:00:00 17 5 Norte 9 Norte 0 -- -- 71
2018-09-23 00:00:00 17.6 6 Norte 9 Nordeste 0 -- -- 68
2018-09-22 23:00:00 20.7 5 Oeste 11 Oeste 0 -- -- 57
2018-09-22 22:00:00 22.1 6 Oeste 10 Oeste 0 -- -- 51
2018-09-22 21:00:00 23.2 8 Oeste 11 Noroeste 0 -- -- 48
2018-09-22 20:00:00 27.1 8 Noroeste 17 Norte 0 -- -- 39
2018-09-22 19:00:00 30.4 8 Noroeste 15 Norte 0 -- -- 33
2018-09-22 18:00:00 30 10 Sudeste 19 Sur 0 -- -- 35
2018-09-22 17:00:00 29.9 8 Sur 19 Sur 0 -- -- 36
2018-09-22 16:00:00 28.9 12 Sur 23 Sur 0 -- -- 37
2018-09-22 15:00:00 27.8 13 Sudeste 23 Sur 0 -- -- 41
2018-09-22 14:00:00 26.4 12 Sudeste 19 Sudeste 0 -- -- 46
2018-09-22 13:00:00 24.6 7 Sur 16 Sudeste 0 -- -- 51
2018-09-22 12:00:00 22.9 5 Sudoeste 10 Sur 0 -- -- 56
2018-09-22 11:00:00 20.4 6 Sur 10 Sur 0 -- -- 64
2018-09-22 10:00:00 18.6 4 Norte 5 Norte 0 -- -- 69
2018-09-22 09:00:00 12.6 4 Norte 9 Norte 0 -- -- 94
2018-09-22 08:00:00 10.3 3 Norte 6 Norte 0 -- -- 94
2018-09-22 07:00:00 12 3 Sudeste 5 Sudeste 0 -- -- 91
2018-09-22 06:00:00 12.4 0 Calma 6 Noroeste 0 -- -- 87
2018-09-22 05:00:00 14.5 0 Calma 6 Norte 0 -- -- 82
2018-09-22 04:00:00 14.6 4 Norte 8 Nordeste 0 -- -- 85
2018-09-22 03:00:00 13.7 7 Norte 10 Este 0 -- -- 90
2018-09-22 02:00:00 13.6 10 Nordeste 15 Nordeste 0 -- -- 89
2018-09-22 01:00:00 15.5 4 Norte 8 Norte 0 -- -- 80
2018-09-22 00:00:00 16.6 3 Noroeste 7 Noroeste 0 -- -- 77
2018-09-21 23:00:00 17.3 3 Norte 10 Norte 0 -- -- 75
2018-09-21 22:00:00 17.7 8 Norte 12 Norte 0 -- -- 74
2018-09-21 21:00:00 19.5 4 Oeste 12 Noroeste 0 -- -- 66
2018-09-21 20:00:00 21.4 8 Noroeste 20 Noroeste 0 -- -- 61
2018-09-21 19:00:00 22.9 15 Noroeste 28 Noroeste 0 -- -- 55
2018-09-21 18:00:00 24 14 Noroeste 26 Norte 0 -- -- 51
2018-09-21 17:00:00 27.5 16 Norte 23 Norte 0 -- -- 41
2018-09-21 16:00:00 26.1 7 Oeste 23 Sudoeste 0 -- -- 44
2018-09-21 15:00:00 26.6 5 Oeste 18 Noroeste 0 -- -- 42
2018-09-21 14:00:00 25.2 6 Noroeste 17 Sudoeste 0 -- -- 39
2018-09-21 13:00:00 22.6 7 Oeste 19 Oeste 0 -- -- 42
2018-09-21 12:00:00 21 8 Noroeste 13 Noroeste 0 -- -- 50
2018-09-21 11:00:00 19.3 6 Oeste 16 Noroeste 0 -- -- 56
2018-09-21 10:00:00 15.6 8 Norte 15 Noroeste 0 -- -- 75
2018-09-21 09:00:00 12.3 12 Noroeste 19 Oeste 0 -- -- 80
2018-09-21 08:00:00 13.4 10 Noroeste 17 Noroeste 0 -- -- 72
2018-09-21 07:00:00 11.6 11 Norte 17 Noroeste 0 -- -- 79
2018-09-21 06:00:00 12.8 6 Norte 14 Noroeste 0 -- -- 71
2018-09-21 05:00:00 13.7 7 Norte 18 Norte 0 -- -- 67
2018-09-21 04:00:00 14.2 6 Norte 21 Oeste 0 -- -- 59
2018-09-21 03:00:00 16.5 12 Noroeste 25 Noroeste 0 -- -- 51
2018-09-21 02:00:00 14.8 7 Norte 12 Noroeste 0 -- -- 63
2018-09-21 01:00:00 16.4 4 Nordeste 23 Oeste 0 -- -- 56
2018-09-21 00:00:00 17.8 12 Noroeste 24 Oeste 0 -- -- 53
2018-09-20 23:00:00 18.7 10 Noroeste 30 Noroeste 0 -- -- 48
2018-09-20 22:00:00 20.3 15 Noroeste 30 Noroeste 0 -- -- 44
2018-09-20 21:00:00 21.4 15 Noroeste 26 Noroeste 0 -- -- 43
2018-09-20 20:00:00 24.6 8 Oeste 19 Oeste 0 -- -- 38
2018-09-20 19:00:00 25.7 13 Noroeste 26 Noroeste 0 -- -- 33
2018-09-20 18:00:00 27.7 15 Noroeste 28 Noroeste 0 -- -- 33
2018-09-20 17:00:00 29.7 12 Sudoeste 36 Sur 0 -- -- 31
2018-09-20 16:00:00 29.5 19 Sudoeste 37 Sur 0 -- -- 26
2018-09-20 15:00:00 28.7 25 Sur 41 Sur 0 -- -- 28
2018-09-20 14:00:00 26.8 5 Sur 17 Sur 0 -- -- 40
2018-09-20 13:00:00 24.8 6 Sur 13 Sur 0 -- -- 44
2018-09-20 12:00:00 23.5 6 Sudeste 11 Sudeste 0 -- -- 46
2018-09-20 11:00:00 21.7 5 Norte 9 Norte 0 -- -- 51
2018-09-20 10:00:00 18.5 0 Calma 6 Norte 0 -- -- 58
2018-09-20 09:00:00 12.8 2 Sur 6 Noroeste 0 -- -- 74
2018-09-20 08:00:00 12.6 7 Noroeste 11 Noroeste 0 -- -- 72
2018-09-20 07:00:00 11.1 -- -- -- -- 0 -- -- 78
2018-09-20 06:00:00 11.9 4 Nordeste 5 Nordeste 0 -- -- 74
2018-09-20 05:00:00 13.2 0 Calma 6 Nordeste 0 -- -- 69
2018-09-20 04:00:00 14.6 4 Norte 5 Norte 0 -- -- 63
2018-09-20 03:00:00 15.2 3 Norte 6 Nordeste 0 -- -- 59
2018-09-20 02:00:00 16.1 3 Norte 5 Noroeste 0 -- -- 56
2018-09-20 01:00:00 16.7 0 Calma 6 Oeste 0 -- -- 52
2018-09-20 00:00:00 17.6 6 Noroeste 8 Noroeste 0 -- -- 49
2018-09-19 23:00:00 18.1 3 Sur 15 Noroeste 0 -- -- 53
2018-09-19 22:00:00 19.8 3 Oeste 17 Noroeste 0 -- -- 49
2018-09-19 21:00:00 21.3 9 Noroeste 17 Noroeste 0 -- -- 49
2018-09-19 20:00:00 24.6 9 Noroeste 18 Noroeste 0 -- -- 45
2018-09-19 19:00:00 27.5 11 Noroeste 20 Norte 0 -- -- 38
2018-09-19 18:00:00 29.6 13 Nordeste 20 Nordeste 0 -- -- 33
2018-09-19 17:00:00 29.5 7 Este 17 Este 0 -- -- 35
2018-09-19 16:00:00 30 7 Este 17 Nordeste 0 -- -- 36
2018-09-19 15:00:00 27.5 10 Este 19 Sur 0 -- -- 41
2018-09-19 14:00:00 26 9 Sur 19 Sudeste 0 -- -- 46
2018-09-19 13:00:00 24.5 5 Sur 14 Sur 0 -- -- 50
2018-09-19 12:00:00 23.2 5 Sudeste 11 Norte 0 -- -- 55
2018-09-19 11:00:00 22.6 3 Norte 6 Nordeste 0 -- -- 58
2018-09-19 10:00:00 19.1 0 Calma 6 Norte 0 -- -- 64
2018-09-19 09:00:00 11.9 3 Norte 6 Norte 0 -- -- 84
2018-09-19 08:00:00 10.4 0 Calma 6 Norte 0 -- -- 86
2018-09-19 07:00:00 11.7 3 Nordeste 12 Norte 0 -- -- 85
2018-09-19 06:00:00 11.7 0 Calma 9 Noroeste 0 -- -- 87
2018-09-19 05:00:00 12.7 4 Nordeste 12 Norte 0 -- -- 80
2018-09-19 04:00:00 12.7 2 Norte 8 Nordeste 0 -- -- 82
2018-09-19 03:00:00 14.8 3 Sudeste 9 Norte 0 -- -- 75
2018-09-19 02:00:00 14.5 8 Norte 9 Norte 0 -- -- 74
2018-09-19 01:00:00 15.1 6 Norte 8 Norte 0 -- -- 69
2018-09-19 00:00:00 16.4 2 Norte 7 Oeste 0 -- -- 62
2018-09-18 23:00:00 17.4 3 Sur 10 Este 0 -- -- 56
2018-09-18 22:00:00 19.4 7 Norte 27 Noroeste 0 -- -- 49
2018-09-18 21:00:00 20.2 10 Noroeste 24 Noroeste 0 -- -- 46
2018-09-18 20:00:00 22.5 14 Noroeste 27 Noroeste 0 -- -- 45
2018-09-18 19:00:00 26.3 15 Noroeste 27 Noroeste 0 -- -- 39
2018-09-18 18:00:00 27.5 20 Noroeste 28 Noroeste 0 -- -- 36
2018-09-18 17:00:00 27.7 19 Noroeste 29 Norte 0 -- -- 34
2018-09-18 16:00:00 28.8 13 Noroeste 28 Noroeste 0 -- -- 32
2018-09-18 15:00:00 28.5 7 Norte 20 Este 0 -- -- 33
2018-09-18 14:00:00 27.3 5 Nordeste 19 Sudeste 0 -- -- 38
2018-09-18 13:00:00 25.6 5 Sur 14 Sur 0 -- -- 42
2018-09-18 12:00:00 25.7 3 Este 13 Nordeste 0 -- -- 44
2018-09-18 11:00:00 24.7 2 Nordeste 5 Norte 0 -- -- 45
2018-09-18 10:00:00 18.6 2 Sur 5 Sur 0 -- -- 59
2018-09-18 09:00:00 12.3 4 Norte 7 Noroeste 0 -- -- 77
2018-09-18 08:00:00 12.6 0 Calma 5 Noroeste 0 -- -- 74
2018-09-18 07:00:00 13.3 3 Nordeste 12 Norte 0 -- -- 71
2018-09-18 06:00:00 14.3 11 Norte 18 Norte 0 -- -- 67
2018-09-18 05:00:00 14.7 12 Norte 17 Norte 0 -- -- 66
2018-09-18 04:00:00 15.5 13 Norte 15 Norte 0 -- -- 64
2018-09-18 03:00:00 17.4 5 Norte 8 Norte 0 -- -- 57
2018-09-18 02:00:00 18.8 4 Noroeste 7 Noroeste 0 -- -- 53
2018-09-18 01:00:00 18.8 0 Calma -- -- 0 -- -- 52
2018-09-18 00:00:00 19 3 Norte 12 Noroeste 0 -- -- 51
2018-09-17 23:00:00 19.4 2 Nordeste 12 Noroeste 0 -- -- 53
2018-09-17 22:00:00 20.5 3 Noroeste 21 Oeste 0 -- -- 51
2018-09-17 21:00:00 22.5 12 Oeste 22 Oeste 0 -- -- 50
2018-09-17 20:00:00 24.4 10 Noroeste 17 Noroeste 0 -- -- 44
2018-09-17 19:00:00 25.7 9 Noroeste 22 Norte 0 -- -- 41
2018-09-17 18:00:00 28.2 15 Norte 27 Noroeste 0 -- -- 38
2018-09-17 17:00:00 30.1 19 Norte 31 Norte 0 -- -- 37
2018-09-17 16:00:00 29.2 14 Sur 41 Sur 0 -- -- 32
2018-09-17 15:00:00 28.6 21 Sur 35 Sur 0 -- -- 37
2018-09-17 14:00:00 26.4 14 Sudeste 22 Sudeste 0 -- -- 43
2018-09-17 13:00:00 25.7 5 Sudeste 13 Sudeste 0 -- -- 45
2018-09-17 12:00:00 23.4 5 Sur 11 Sudeste 0 -- -- 51
2018-09-17 11:00:00 21.7 6 Sudeste 10 Sudeste 0 -- -- 55
2018-09-17 10:00:00 19.6 0 Calma 4 Nordeste 0 -- -- 59
2018-09-17 09:00:00 12.8 0 Calma 4 Oeste 0 -- -- 72
2018-09-17 08:00:00 10.8 4 Noroeste 7 Norte 0 -- -- 77
2018-09-17 07:00:00 12.2 0 Calma 10 Norte 0 -- -- 70
2018-09-17 06:00:00 10.6 7 Norte 9 Norte 0 -- -- 77
2018-09-17 05:00:00 12.6 4 Noroeste 10 Norte 0 -- -- 67
2018-09-17 04:00:00 13.2 9 Norte 10 Noroeste 0 -- -- 65
2018-09-17 03:00:00 11.6 7 Norte 9 Norte 0 -- -- 74
2018-09-17 02:00:00 11.5 6 Norte 8 Norte 0 -- -- 72
2018-09-17 01:00:00 13.9 4 Norte 6 Noroeste 0 -- -- 63
2018-09-17 00:00:00 16.7 0 Calma 9 Norte 0 -- -- 51
2018-09-16 23:00:00 18.6 2 Nordeste 10 Noroeste 0 -- -- 47
2018-09-16 22:00:00 19.5 9 Noroeste 14 Norte 0 -- -- 50
2018-09-16 21:00:00 21.9 4 Noroeste 9 Noroeste 0 -- -- 43
2018-09-16 20:00:00 23.5 3 Norte 15 Norte 0 -- -- 42
2018-09-16 19:00:00 24.9 6 Norte 21 Norte 0 -- -- 39
2018-09-16 18:00:00 25.9 14 Norte 23 Noroeste 0 -- -- 38
2018-09-16 17:00:00 27.2 14 Noroeste 23 Noroeste 0 -- -- 34
2018-09-16 16:00:00 29.9 11 Noroeste 20 Noroeste 0 -- -- 36
2018-09-16 15:00:00 28.3 5 Sur 17 Sudeste 0 -- -- 39
2018-09-16 14:00:00 27 6 Sur 14 Sur 0 -- -- 43
2018-09-16 13:00:00 25.3 5 Sudeste 17 Sur 0 -- -- 48
2018-09-16 12:00:00 25.4 5 Este 10 Este 0 -- -- 47
2018-09-16 11:00:00 24.3 4 Nordeste 10 Nordeste 0 -- -- 48
2018-09-16 10:00:00 20.7 2 Nordeste 8 Norte 0 -- -- 62
2018-09-16 09:00:00 13.6 7 Norte 9 Norte 0 -- -- 88
2018-09-16 08:00:00 12.3 5 Norte 6 Norte 0 -- -- 90
2018-09-16 07:00:00 13.8 0 Calma 6 Norte 0 -- -- 86
2018-09-16 06:00:00 15 0 Calma 8 Norte 0 -- -- 82
2018-09-16 05:00:00 16.6 8 Norte 13 Noroeste 0 -- -- 77
2018-09-16 04:00:00 16.6 9 Norte 16 Norte 0 -- -- 79
2018-09-16 03:00:00 18.1 10 Norte 20 Norte 0 -- -- 73
2018-09-16 02:00:00 17.4 7 Norte 18 Sudeste 0 -- -- 75
2018-09-16 01:00:00 19 3 Sur 13 Norte 0 -- -- 68
2018-09-16 00:00:00 18.6 6 Norte 20 Noroeste 0 -- -- 72
2018-09-15 23:00:00 22.7 13 Noroeste 25 Oeste 0 -- -- 56
2018-09-15 22:00:00 23.5 5 Oeste 12 Oeste 0 -- -- 49
2018-09-15 21:00:00 23.7 3 Sur 9 Sudeste 0 -- -- 51
2018-09-15 20:00:00 25.3 7 Sudeste 10 Sudeste 0 -- -- 46
2018-09-15 19:00:00 26.7 4 Sudeste 15 Sudeste 0 -- -- 42
2018-09-15 18:00:00 28.8 10 Sudeste 16 Sudeste 0 -- -- 38
2018-09-15 17:00:00 30.2 7 Sur 21 Sudeste 0 -- -- 36
2018-09-15 16:00:00 29.1 8 Sudeste 20 Sudoeste 0 -- -- 38
2018-09-15 15:00:00 28.1 6 Sudeste 16 Sur 0 -- -- 40
2018-09-15 14:00:00 26.6 8 Sur 14 Sur 0 -- -- 45
2018-09-15 13:00:00 25.7 4 Este 12 Sur 0 -- -- 48
2018-09-15 12:00:00 23.2 7 Sudeste 14 Sudeste 0 -- -- 55
2018-09-15 11:00:00 22.1 4 Sur 9 Sur 0 -- -- 60
2018-09-15 10:00:00 18.8 4 Norte 10 Norte 0 -- -- 71
2018-09-15 09:00:00 12.8 6 Norte 7 Norte 0 -- -- 91
2018-09-15 08:00:00 12 2 Sudeste 6 Nordeste 0 -- -- 93
2018-09-15 07:00:00 12.2 3 Oeste 10 Norte 0 -- -- 93
2018-09-15 06:00:00 13.1 2 Sudeste 10 Oeste 0 -- -- 90
2018-09-15 05:00:00 15.9 7 Oeste 15 Oeste 0 -- -- 82
2018-09-15 04:00:00 16.3 12 Oeste 16 Oeste 0 -- -- 81
2018-09-15 03:00:00 16.7 12 Oeste 17 Oeste 0 -- -- 79
2018-09-15 02:00:00 17.2 11 Oeste 14 Oeste 0 -- -- 76
2018-09-15 01:00:00 18.3 4 Este 16 Nordeste 0 -- -- 71
2018-09-15 00:00:00 17.7 10 Nordeste 16 Nordeste 0 -- -- 68
2018-09-14 23:00:00 18.5 6 Norte 17 Norte 0 -- -- 64
2018-09-14 22:00:00 20.9 8 Nordeste 15 Oeste 0 -- -- 59
2018-09-14 21:00:00 24.2 7 Noroeste 10 Noroeste 0 -- -- 45
2018-09-14 20:00:00 25.6 6 Noroeste 14 Noroeste 0 -- -- 40
2018-09-14 19:00:00 29.4 5 Norte 14 Este 0 -- -- 37
2018-09-14 18:00:00 29.6 5 Sudeste 21 Sudeste 0 -- -- 38
2018-09-14 17:00:00 28.6 10 Sur 16 Sur 0 -- -- 40
2018-09-14 16:00:00 27.7 10 Sudeste 20 Sur 0 -- -- 42
2018-09-14 15:00:00 26.2 8 Sur 22 Sudeste 0 -- -- 45
2018-09-14 14:00:00 24.6 8 Sudeste 15 Sudeste 0 -- -- 48
2018-09-14 13:00:00 22.8 7 Sur 13 Sur 0 -- -- 54
2018-09-14 12:00:00 21.6 5 Sur 14 Sur 0 -- -- 58
2018-09-14 11:00:00 20 6 Sur 13 Sur 0 -- -- 64
2018-09-14 10:00:00 19.3 0 Calma 5 Norte 0 -- -- 67
2018-09-14 09:00:00 13.6 3 Sudoeste 8 Norte 0 -- -- 85
2018-09-14 08:00:00 11.7 7 Norte 9 Norte 0 -- -- 93
2018-09-14 07:00:00 12 4 Norte 8 Norte 0 -- -- 90
2018-09-14 06:00:00 12.1 4 Norte 8 Norte 0 -- -- 90
2018-09-14 05:00:00 14.7 4 Oeste 8 Oeste 0 -- -- 81
2018-09-14 04:00:00 15.3 5 Oeste 8 Oeste 0 -- -- 78
2018-09-14 03:00:00 16.3 0 Calma 8 Oeste 0 -- -- 77
2018-09-14 02:00:00 15.9 7 Norte 10 Nordeste 0 -- -- 75
2018-09-14 01:00:00 16.6 8 Este 10 Este 0 -- -- 69
2018-09-14 00:00:00 18 3 Este 12 Este 0 -- -- 61
2018-09-13 23:00:00 19.3 6 Este 14 Este 0 -- -- 54
2018-09-13 22:00:00 20.3 5 Oeste 14 Oeste 0 -- -- 53
2018-09-13 21:00:00 23.2 9 Noroeste 14 Noroeste 0 -- -- 37
2018-09-13 20:00:00 26.5 8 Noroeste 18 Norte 0 -- -- 30
2018-09-13 19:00:00 30 10 Norte 16 Noroeste 0 -- -- 27
2018-09-13 18:00:00 31.1 3 Sur 17 Norte 0 -- -- 32
2018-09-13 17:00:00 30.4 11 Nordeste 23 Sudeste 0 -- -- 36
2018-09-13 16:00:00 28.1 10 Sudeste 23 Sudeste 0 -- -- 41
2018-09-13 15:00:00 27.3 9 Sur 21 Sudeste 0 -- -- 45
2018-09-13 14:00:00 25.2 8 Sur 20 Sudeste 0 -- -- 50
2018-09-13 13:00:00 24.2 10 Sur 17 Sur 0 -- -- 55
2018-09-13 12:00:00 23.3 5 Sur 12 Sudeste 0 -- -- 55
2018-09-13 11:00:00 22.1 4 Sur 9 Sur 0 -- -- 60
2018-09-13 10:00:00 19.4 2 Sur 5 Sur 0 -- -- 70
2018-09-13 09:00:00 14.5 5 Norte 12 Norte 0 -- -- 89
2018-09-13 08:00:00 10.8 7 Norte 11 Norte 0 -- -- 95
2018-09-13 07:00:00 10.9 5 Norte 6 Norte 0 -- -- 94
2018-09-13 06:00:00 12.9 3 Norte 7 Oeste 0 -- -- 89
2018-09-13 05:00:00 15.6 6 Oeste 8 Oeste 0 -- -- 86
2018-09-13 04:00:00 15 3 Norte 4 Sudoeste 0 -- -- 84
2018-09-13 03:00:00 15.9 4 Sur 11 Sudeste 0 -- -- 79
2018-09-13 02:00:00 16.1 2 Nordeste 9 Norte 0 -- -- 77
2018-09-13 01:00:00 17.4 5 Nordeste 9 Este 0 -- -- 68
2018-09-13 00:00:00 18.9 4 Sudeste 7 Sudeste 0 -- -- 60
2018-09-12 23:00:00 19.2 3 Sudoeste 8 Norte 0 -- -- 59
2018-09-12 22:00:00 19.6 6 Nordeste 19 Oeste 0 -- -- 58
2018-09-12 21:00:00 22.8 12 Noroeste 18 Noroeste 0 -- -- 44
2018-09-12 20:00:00 26.3 10 Noroeste 23 Noroeste 0 -- -- 37
2018-09-12 19:00:00 28.6 12 Noroeste 28 Noroeste 0 -- -- 36
2018-09-12 18:00:00 29.4 15 Noroeste 27 Noroeste 0 -- -- 33
2018-09-12 17:00:00 30.5 13 Noroeste 23 Noroeste 0 -- -- 32
2018-09-12 16:00:00 29.3 9 Noroeste 18 Sudoeste 0 -- -- 33
2018-09-12 15:00:00 26.3 7 Sur 20 Sur 0 -- -- 44
2018-09-12 14:00:00 27.4 8 Sur 17 Sur 0 -- -- 39
2018-09-12 13:00:00 26 8 Sur 12 Sur 0 -- -- 43
2018-09-12 12:00:00 25.4 4 Norte 9 Nordeste 0 -- -- 43
2018-09-12 11:00:00 24 2 Nordeste 5 Nordeste 0 -- -- 48
2018-09-12 10:00:00 20.2 0 Calma 8 Norte 0 -- -- 64
2018-09-12 09:00:00 13.4 8 Norte 9 Norte 0 -- -- 83
2018-09-12 08:00:00 12 3 Nordeste 5 Nordeste 0 -- -- 87
2018-09-12 07:00:00 13.1 0 Calma 6 Noroeste 0 -- -- 82
2018-09-12 06:00:00 13.3 3 Norte 5 Noroeste 0 -- -- 82
2018-09-12 05:00:00 14.6 0 Calma 6 Noroeste 0 -- -- 78
2018-09-12 04:00:00 16.5 0 Calma 5 Sudeste 0 -- -- 69
2018-09-12 03:00:00 16 0 Calma 12 Norte 0 -- -- 71
2018-09-12 02:00:00 15.9 10 Norte 14 Norte 0 -- -- 73
2018-09-12 01:00:00 15.8 12 Norte 14 Norte 0 -- -- 73
2018-09-12 00:00:00 16.3 6 Norte 18 Este 0 -- -- 70
2018-09-11 23:00:00 16.5 11 Nordeste 21 Este 0 -- -- 68
2018-09-11 22:00:00 20.8 0 Calma 6 Oeste 0 -- -- 48
2018-09-11 21:00:00 22.6 3 Sur 10 Sudeste 0 -- -- 46
2018-09-11 20:00:00 25.3 8 Sudeste 15 Sudeste 0 -- -- 40
2018-09-11 19:00:00 30.2 5 Nordeste 16 Este 0 -- -- 31
2018-09-11 18:00:00 30.9 4 Este 14 Este 0 -- -- 30
2018-09-11 17:00:00 30.5 5 Este 17 Sur 0 -- -- 31
2018-09-11 16:00:00 29.4 5 Nordeste 22 Este 0 -- -- 33
2018-09-11 15:00:00 27.3 5 Este 17 Este 0 -- -- 37
2018-09-11 14:00:00 26.3 5 Sudeste 16 Sudeste 0 -- -- 42
2018-09-11 13:00:00 25.7 5 Nordeste 15 Este 0 -- -- 48
2018-09-11 12:00:00 24 6 Nordeste 13 Nordeste 0 -- -- 51
2018-09-11 11:00:00 23.9 3 Nordeste 10 Norte 0 -- -- 50
2018-09-11 10:00:00 20.7 4 Norte 9 Norte 0 -- -- 60
2018-09-11 09:00:00 14 6 Norte 12 Norte 0 -- -- 85
2018-09-11 08:00:00 10.5 12 Norte 14 Norte 0 -- -- 95
2018-09-11 07:00:00 10.5 6 Norte 8 Norte 0 -- -- 94
2018-09-11 06:00:00 11.2 4 Nordeste 9 Norte 0 -- -- 90
2018-09-11 05:00:00 12.2 7 Norte 9 Norte 0 -- -- 88
2018-09-11 04:00:00 13.1 2 Sudoeste 8 Noroeste 0 -- -- 83
2018-09-11 03:00:00 13.8 5 Noroeste 9 Noroeste 0 -- -- 82
2018-09-11 02:00:00 15.9 8 Norte 12 Norte 0 -- -- 73
2018-09-11 01:00:00 15.2 8 Norte 29 Este 0 -- -- 75
2018-09-11 00:00:00 15.9 7 Norte 14 Norte 0 -- -- 69
2018-09-10 23:00:00 16.7 0 Calma 5 Oeste 0 -- -- 71
2018-09-10 22:00:00 21.4 5 Oeste 7 Oeste 0 -- -- 48
2018-09-10 21:00:00 21.2 3 Sudoeste 11 Sudeste 0 -- -- 53
2018-09-10 20:00:00 24.6 7 Sur 16 Sudeste 0 -- -- 44
2018-09-10 19:00:00 26.2 9 Sudeste 16 Sur 0 -- -- 38
2018-09-10 18:00:00 27.5 7 Sudeste 14 Sudeste 0 -- -- 38
2018-09-10 17:00:00 27.9 9 Este 20 Este 0 -- -- 37
2018-09-10 16:00:00 25.4 6 Sur 17 Este 0 -- -- 42
2018-09-10 15:00:00 25.3 6 Este 17 Sudeste 0 -- -- 44
2018-09-10 14:00:00 24.3 6 Sudeste 13 Sudeste 0 -- -- 49
2018-09-10 13:00:00 23.1 4 Sudoeste 15 Sur 0 -- -- 53
2018-09-10 12:00:00 20.3 9 Sudeste 17 Sur 0 -- -- 62
2018-09-10 11:00:00 18.6 9 Sur 13 Sudeste 0 -- -- 69
2018-09-10 10:00:00 17.2 0 Calma 5 Norte 0 -- -- 73
2018-09-10 09:00:00 11.5 6 Norte 8 Norte 0 -- -- 95
2018-09-10 08:00:00 8.8 5 Norte 9 Norte 0 -- -- 97
2018-09-10 07:00:00 9.1 5 Norte 9 Oeste 0 -- -- 94
2018-09-10 06:00:00 10.3 6 Noroeste 9 Oeste 0 -- -- 94
2018-09-10 05:00:00 11.2 3 Sudoeste 6 Noroeste 0 -- -- 91
2018-09-10 04:00:00 10.7 3 Sudeste 7 Norte 0 -- -- 91
2018-09-10 03:00:00 10.9 3 Este 8 Oeste 0 -- -- 89
2018-09-10 02:00:00 11.7 4 Sur 8 Sudeste 0 -- -- 87
2018-09-10 01:00:00 13.8 5 Nordeste 12 Norte 0 -- -- 76
2018-09-10 00:00:00 11.9 9 Norte 10 Norte 0 -- -- 88
2018-09-09 23:00:00 15.4 9 Noroeste 10 Noroeste 0 -- -- 67
2018-09-09 22:00:00 15.9 3 Noroeste 11 Noroeste 0 -- -- 72
2018-09-09 21:00:00 15.8 3 Norte 15 Nordeste 0 -- -- 80
2018-09-09 20:00:00 18.3 12 Norte 19 Nordeste 0 -- -- 69
2018-09-09 19:00:00 17.8 8 Norte 17 Oeste 0.2 -- -- 86
2018-09-09 18:00:00 16.9 5 Sudoeste 29 Este 8.6 -- -- 76
2018-09-09 17:00:00 23 14 Nordeste 35 Este 0 -- -- 51
2018-09-09 16:00:00 23.4 7 Sudoeste 19 Sur 0 -- -- 52
2018-09-09 15:00:00 24.6 6 Sur 18 Sur 0 -- -- 51
2018-09-09 14:00:00 22.4 9 Sur 17 Sudeste 0 -- -- 58
2018-09-09 13:00:00 20 11 Sur 17 Sudeste 0 -- -- 66
2018-09-09 12:00:00 22.1 4 Este 10 Nordeste 0 -- -- 60
2018-09-09 11:00:00 19.1 5 Sur 7 Sur 0 -- -- 75
2018-09-09 10:00:00 16 3 Nordeste 6 Noroeste 0 -- -- 83
2018-09-09 09:00:00 11 5 Norte 7 Noroeste 0 -- -- 97
2018-09-09 08:00:00 11.1 0 Calma 10 Noroeste 0 -- -- 98
2018-09-09 07:00:00 11.4 7 Norte 13 Norte 0 -- -- 97
2018-09-09 06:00:00 11.7 9 Noroeste 12 Noroeste 0 -- -- 97
2018-09-09 05:00:00 12.4 5 Sudoeste 15 Este 0 -- -- 96
2018-09-09 04:00:00 13.1 8 Sudeste 16 Este 0 -- -- 92
2018-09-09 03:00:00 12.9 4 Norte 10 Sudoeste 0 -- -- 94
2018-09-09 02:00:00 13.4 7 Noroeste 17 Norte 0 -- -- 92
2018-09-09 01:00:00 13.8 8 Noroeste -- -- 0.2 -- -- 90
2018-09-09 00:00:00 -- -- -- -- -- 0.6 -- -- --
2018-09-08 23:00:00 14.7 12 Noroeste 32 Norte 0.2 -- -- 85
2018-09-08 22:00:00 14.7 23 Norte 28 Norte 1.8 -- -- 88
2018-09-08 21:00:00 -- -- -- -- -- 1.6 -- -- --
2018-09-08 20:00:00 20.7 16 Norte 23 Nordeste 0 -- -- 55
2018-09-08 19:00:00 23.4 8 Sur 17 Sudeste 0 -- -- 45
2018-09-08 18:00:00 24.8 11 Sudeste 19 Sudeste 0 -- -- 43
2018-09-08 17:00:00 26.5 8 Sudeste 23 Sur 0 -- -- 41
2018-09-08 16:00:00 25.6 13 Sudeste 26 Sudeste 0 -- -- 45
2018-09-08 15:00:00 24.8 10 Sur 22 Sur 0 -- -- 48
2018-09-08 14:00:00 24.5 9 Sur 22 Sur 0 -- -- 48
2018-09-08 13:00:00 23.9 6 Sur 18 Sur 0 -- -- 51
2018-09-08 12:00:00 23.4 6 Nordeste 17 Norte 0 -- -- 53
2018-09-08 11:00:00 19.6 11 Nordeste 18 Norte 0 -- -- 63
2018-09-08 10:00:00 18 8 Norte -- -- 0 -- -- 66
2018-09-08 09:00:00 14.1 8 Noroeste 9 Noroeste 0 -- -- 80
2018-09-08 08:00:00 10.3 2 Sudeste 7 Sudeste 0 -- -- 91
2018-09-08 07:00:00 9 5 Norte 10 Norte 0 -- -- 92
2018-09-08 06:00:00 10.3 8 Norte 12 Norte 0 -- -- 87
2018-09-08 05:00:00 10.4 6 Sur 9 Sudeste 0 -- -- 88
2018-09-08 04:00:00 11.8 6 Noroeste 9 Oeste 0 -- -- 83
2018-09-08 03:00:00 13.3 4 Norte 14 Oeste 0 -- -- 76
2018-09-08 02:00:00 14.5 7 Oeste 12 Oeste 0 -- -- 72
2018-09-08 01:00:00 14.8 0 Calma 11 Este 0 -- -- 72
2018-09-08 00:00:00 16 4 Este 14 Norte 0 -- -- 67
2018-09-07 23:00:00 13.9 9 Norte 23 Nordeste 0 -- -- 75
2018-09-07 22:00:00 18.6 4 Noroeste 7 Noroeste 0 -- -- 55
2018-09-07 21:00:00 19.6 3 Sur 12 Sudeste 0 -- -- 52
2018-09-07 20:00:00 22.7 9 Sur 17 Sur 0 -- -- 44
2018-09-07 19:00:00 23.8 11 Sudeste 20 Sur 0 -- -- 43
2018-09-07 18:00:00 24.9 6 Sudeste 19 Este 0 -- -- 40
2018-09-07 17:00:00 24.7 9 Este 17 Este 0 -- -- 43
2018-09-07 16:00:00 23.1 8 Nordeste 19 Sur 0 -- -- 47
2018-09-07 15:00:00 22.3 10 Sudeste 19 Sur 0 -- -- 47
2018-09-07 14:00:00 21.9 8 Sudeste 22 Sur 0 -- -- 48
2018-09-07 13:00:00 20.1 10 Sudeste 18 Sur 0 -- -- 55
2018-09-07 12:00:00 19.9 6 Este 13 Sur 0 -- -- 56
2018-09-07 11:00:00 17.7 5 Sur 11 Sur 0 -- -- 64
2018-09-07 10:00:00 15.5 4 Oeste 8 Oeste 0 -- -- 74
2018-09-07 09:00:00 12.9 0 Calma 7 Noroeste 0 -- -- 85
2018-09-07 08:00:00 10 4 Norte 9 Norte 0 -- -- 96
2018-09-07 07:00:00 9 7 Norte 8 Norte 0 -- -- 95
2018-09-07 06:00:00 10.3 4 Norte 6 Sudoeste 0 -- -- 90
2018-09-07 05:00:00 11.6 3 Sudoeste 9 Oeste 0 -- -- 88
2018-09-07 04:00:00 12.6 5 Sudoeste 11 Sudoeste 0 -- -- 84
2018-09-07 03:00:00 12.9 6 Sudoeste 9 Sudoeste 0 -- -- 84
2018-09-07 02:00:00 13.5 5 Oeste 8 Oeste 0 -- -- 81
2018-09-07 01:00:00 14.1 4 Sudeste 8 Este 0 -- -- 79
2018-09-07 00:00:00 15.3 4 Nordeste 15 Norte 0 -- -- 73
2018-09-06 23:00:00 15.6 14 Norte 23 Nordeste 0 -- -- 71
2018-09-06 22:00:00 16 18 Nordeste 28 Nordeste 0 -- -- 70
2018-09-06 21:00:00 16.8 18 Nordeste 30 Nordeste 0 -- -- 66
2018-09-06 20:00:00 20.6 22 Nordeste 27 Norte 0 -- -- 54
2018-09-06 19:00:00 22 20 Nordeste 32 Norte 0 -- -- 49
2018-09-06 18:00:00 22.7 22 Nordeste 33 Norte 0 -- -- 47
2018-09-06 17:00:00 23.6 21 Nordeste 30 Nordeste 0 -- -- 45
2018-09-06 16:00:00 21.5 19 Nordeste 32 Norte 0 -- -- 49
2018-09-06 15:00:00 22.1 22 Nordeste 33 Nordeste 0 -- -- 50
2018-09-06 14:00:00 21.9 7 Este 23 Nordeste 0 -- -- 51
2018-09-06 13:00:00 21.8 9 Nordeste 16 Nordeste 0 -- -- 50
2018-09-06 12:00:00 21.6 7 Nordeste 15 Norte 0 -- -- 54
2018-09-06 11:00:00 18.9 6 Norte 10 Nordeste 0 -- -- 62
2018-09-06 10:00:00 16.6 2 Sur 7 Sur 0 -- -- 72
2018-09-06 09:00:00 12.8 2 Sur 5 Nordeste 0 -- -- 86
2018-09-06 08:00:00 9.9 5 Norte 8 Norte 0 -- -- 96
2018-09-06 07:00:00 9.9 6 Norte 12 Norte 0 -- -- 95
2018-09-06 06:00:00 12 4 Norte 8 Noroeste 0 -- -- 91
2018-09-06 05:00:00 11.2 5 Norte 8 Noroeste 0 -- -- 93
2018-09-06 04:00:00 11.4 2 Nordeste 8 Oeste 0 -- -- 94
2018-09-06 03:00:00 12.3 3 Oeste 8 Noroeste 0 -- -- 93
2018-09-06 02:00:00 11.5 5 Noroeste 9 Norte 0 -- -- 94
2018-09-06 01:00:00 12.7 4 Sudoeste 8 Norte 0 -- -- 91
2018-09-06 00:00:00 13.1 5 Norte 10 Norte 0 -- -- 90
2018-09-05 23:00:00 13.9 8 Norte 10 Norte 0 -- -- 89
2018-09-05 22:00:00 14.2 8 Norte 9 Norte 0 -- -- 87
2018-09-05 21:00:00 16 3 Norte 21 Norte 0 -- -- 79
2018-09-05 20:00:00 19.6 15 Norte 22 Norte 0 -- -- 61
2018-09-05 19:00:00 19.4 13 Noroeste 19 Norte 0 -- -- 66
2018-09-05 18:00:00 22.4 2 Noroeste 9 Noroeste 0 -- -- 50
2018-09-05 17:00:00 21.8 8 Norte 21 Nordeste 0.2 -- -- 53
2018-09-05 16:00:00 22.3 4 Sudoeste 15 Oeste 0 -- -- 52
2018-09-05 15:00:00 19.8 5 Oeste 14 Sur 0 -- -- 56
2018-09-05 14:00:00 19.1 3 Nordeste 13 Norte 0 -- -- 61
2018-09-05 13:00:00 18.4 8 Noroeste 15 Noroeste 0 -- -- 64
2018-09-05 12:00:00 14 10 Oeste 18 Oeste 0 -- -- 87
2018-09-05 11:00:00 12.9 7 Norte 18 Nordeste 0 -- -- 90
2018-09-05 10:00:00 12.1 8 Sur 35 Norte 0.6 -- -- 93
2018-09-05 09:00:00 12.6 8 Sudoeste 24 Noroeste 1 -- -- 93
2018-09-05 08:00:00 13.4 9 Noroeste 18 Oeste 5 -- -- 96
2018-09-05 07:00:00 13.8 10 Norte 18 Norte 0.4 -- -- 92
2018-09-05 06:00:00 14.5 5 Nordeste 9 Noroeste 0.2 -- -- 92
2018-09-05 05:00:00 15.2 3 Sudeste 6 Noroeste 0 -- -- 85
2018-09-05 04:00:00 15.2 5 Noroeste 13 Norte 0 -- -- 88
2018-09-05 03:00:00 16 10 Nordeste 15 Norte 0 -- -- 89
2018-09-05 02:00:00 16.5 7 Noroeste 14 Oeste 0 -- -- 80
2018-09-05 01:00:00 17.2 9 Oeste 12 Sudoeste 0 -- -- 80
2018-09-05 00:00:00 17.2 8 Nordeste 13 Norte 0.2 -- -- 78
2018-09-04 23:00:00 18.8 10 Nordeste 19 Nordeste 0 -- -- 67
2018-09-04 22:00:00 19.9 11 Nordeste 17 Nordeste 0 -- -- 61
2018-09-04 21:00:00 22.4 0 Calma 5 Sur 0 -- -- 51
2018-09-04 20:00:00 24.2 4 Sudoeste 14 Sur 0 -- -- 44
2018-09-04 19:00:00 26.2 10 Sudeste 21 Sudeste 0 -- -- 40
2018-09-04 18:00:00 26.2 13 Sur 27 Sudeste 0 -- -- 41
2018-09-04 17:00:00 26.5 11 Sur 23 Sur 0 -- -- 39
2018-09-04 16:00:00 26.7 7 Sur 19 Sur 0 -- -- 34
2018-09-04 15:00:00 27.1 4 Nordeste 17 Sudeste 0 -- -- 36
2018-09-04 14:00:00 24.8 7 Nordeste 19 Sudeste 0 -- -- 39
2018-09-04 13:00:00 23.4 7 Sur 21 Sur 0 -- -- 40
2018-09-04 12:00:00 22.4 6 Sur 13 Sudoeste 0 -- -- 41
2018-09-04 11:00:00 20.1 8 Sudoeste 13 Sudoeste 0 -- -- 46
2018-09-04 10:00:00 17.5 8 Oeste 10 Oeste 0 -- -- 69
2018-09-04 09:00:00 17.1 3 Noroeste 6 Noroeste 0 -- -- 81
2018-09-04 08:00:00 13.9 2 Sudoeste 5 Este 0 -- -- 93
2018-09-04 07:00:00 14 3 Noroeste 9 Este 0 -- -- 92
2018-09-04 06:00:00 14.6 3 Sudeste 6 Nordeste 0 -- -- 89
2018-09-04 05:00:00 14.9 2 Nordeste 7 Oeste 0 -- -- 88
2018-09-04 04:00:00 15 4 Sur 16 Noroeste 0 -- -- 88
2018-09-04 03:00:00 15.4 12 Noroeste 35 Nordeste 0 -- -- 87
2018-09-04 02:00:00 15.2 11 Norte 18 Norte 0 -- -- 91
2018-09-04 01:00:00 15.2 15 Norte 24 Norte 0.4 -- -- 90
2018-09-04 00:00:00 15.8 10 Sudoeste 21 Sudoeste 0.2 -- -- 86
2018-09-03 23:00:00 16.7 2 Sudoeste 31 Sudoeste 0.2 -- -- 78
2018-09-03 22:00:00 16.4 15 Norte 31 Noroeste 1 -- -- 81
2018-09-03 21:00:00 19.2 22 Oeste 45 Sudoeste 0 -- -- 56
2018-09-03 20:00:00 25.8 3 Sudeste 15 Sur 0 -- -- 40
2018-09-03 19:00:00 27.9 8 Sur 20 Sur 0 -- -- 34
2018-09-03 18:00:00 29.3 10 Sur 19 Sudeste 0 -- -- 32
2018-09-03 17:00:00 28.6 10 Sur 18 Sur 0 -- -- 33
2018-09-03 16:00:00 28 9 Sur 18 Sudeste 0 -- -- 34
2018-09-03 15:00:00 28 3 Norte 12 Sudoeste 0 -- -- 36
2018-09-03 14:00:00 23.5 5 Noroeste 24 Norte 0 -- -- 51
2018-09-03 13:00:00 19.9 14 Norte 17 Norte 0 -- -- 63
2018-09-03 12:00:00 21 14 Sudoeste 33 Nordeste 0 -- -- 53
2018-09-03 11:00:00 19.3 20 Norte 26 Norte 0 -- -- 64
2018-09-03 10:00:00 18.9 3 Sudoeste 15 Oeste 0 -- -- 59
2018-09-03 09:00:00 17.7 8 Sudoeste 17 Oeste 0 -- -- 59
2018-09-03 08:00:00 18.8 10 Oeste 14 Oeste 0 -- -- 55
2018-09-03 07:00:00 17.4 5 Oeste 23 Norte 0 -- -- 61
2018-09-03 06:00:00 16.9 17 Norte 22 Norte 0 -- -- 63
2018-09-03 05:00:00 16.4 17 Norte 22 Norte 0 -- -- 64
2018-09-03 04:00:00 14.1 8 Norte 12 Norte 0 -- -- 78
2018-09-03 03:00:00 18.2 2 Sur 10 Noroeste 0 -- -- 63
2018-09-03 02:00:00 16.7 3 Norte 11 Sur 0 -- -- 66
2018-09-03 01:00:00 17.4 3 Este 8 Sudeste 0.2 -- -- 65
2018-09-03 00:00:00 19.6 2 Sur 9 Noroeste 0 -- -- 56
2018-09-02 23:00:00 20.6 9 Noroeste 18 Norte 0 -- -- 52
2018-09-02 22:00:00 21.1 16 Norte 24 Norte 0 -- -- 55
2018-09-02 21:00:00 21.7 18 Norte 29 Norte 0 -- -- 58
2018-09-02 20:00:00 22.3 21 Norte 38 Nordeste 2.6 -- -- 68
2018-09-02 19:00:00 31 6 Sudeste 23 Sudeste 0 -- -- 31
2018-09-02 18:00:00 30.2 8 Sur 22 Sudeste 0 -- -- 31
2018-09-02 17:00:00 31.7 12 Sudeste 24 Sudeste 0 -- -- 32
2018-09-02 16:00:00 29.8 13 Sudeste 28 Sudeste 0 -- -- 34
2018-09-02 15:00:00 31.1 13 Sudeste 22 Sudeste 0 -- -- 33
2018-09-02 14:00:00 29.8 10 Sur 18 Sudeste 0 -- -- 34
2018-09-02 13:00:00 28.7 7 Sudeste 18 Sudeste 0 -- -- 36
2018-09-02 12:00:00 28.2 4 Norte 8 Este 0 -- -- 38
2018-09-02 11:00:00 25.4 4 Sur 9 Sudeste 0 -- -- 45
2018-09-02 10:00:00 21.7 2 Sudoeste 4 Oeste 0 -- -- 60
2018-09-02 09:00:00 16.8 2 Sur 9 Norte 0 -- -- 74
2018-09-02 08:00:00 11.6 8 Norte 9 Norte 0 -- -- 90
2018-09-02 07:00:00 13 3 Nordeste 9 Noroeste 0 -- -- 83
2018-09-02 06:00:00 12.4 8 Norte 9 Norte 0 -- -- 85
2018-09-02 05:00:00 15.4 2 Oeste 7 Oeste 0 -- -- 75
2018-09-02 04:00:00 15.9 4 Sudoeste 9 Nordeste 0 -- -- 70
2018-09-02 03:00:00 18.5 0 Calma 7 Noroeste 0 -- -- 62
2018-09-02 02:00:00 19.1 4 Noroeste 12 Norte 0 -- -- 60
2018-09-02 01:00:00 19.2 6 Norte 23 Este 0 -- -- 60
2018-09-02 00:00:00 17.4 6 Norte 9 Norte 0 -- -- 64
2018-09-01 23:00:00 22.4 4 Noroeste 5 Noroeste 0 -- -- 49
2018-09-01 22:00:00 24 0 Calma 8 Sudeste 0 -- -- 45
2018-09-01 21:00:00 25.1 4 Sudeste 9 Sudeste 0 -- -- 42
2018-09-01 20:00:00 29.2 5 Sudeste 17 Sudeste 0 -- -- 34
2018-09-01 19:00:00 30.7 8 Sudeste 17 Sur 0 -- -- 33
2018-09-01 18:00:00 30.6 8 Sur 24 Sudeste 0 -- -- 32
2018-09-01 17:00:00 30 8 Sudeste 18 Sur 0 -- -- 33
2018-09-01 16:00:00 28.9 8 Sudeste 20 Sudeste 0 -- -- 37
2018-09-01 15:00:00 28.4 7 Este 18 Sur 0 -- -- 39
2018-09-01 14:00:00 26.8 8 Sur 19 Sur 0 -- -- 44
2018-09-01 13:00:00 25.6 8 Sudeste 19 Sudeste 0 -- -- 45
2018-09-01 12:00:00 24.1 9 Sur 18 Sur 0 -- -- 49
2018-09-01 11:00:00 22.4 9 Sur 14 Sur 0 -- -- 53
2018-09-01 10:00:00 22.1 3 Sudoeste 7 Norte 0 -- -- 58
2018-09-01 09:00:00 15.4 5 Norte 8 Norte 0 -- -- 77
2018-09-01 08:00:00 10.9 6 Norte 8 Noroeste 0 -- -- 90
2018-09-01 07:00:00 13.2 4 Nordeste 7 Nordeste 0 -- -- 84
2018-09-01 06:00:00 13.8 4 Oeste 11 Sudoeste 0 -- -- 84
2018-09-01 05:00:00 15.6 8 Sudoeste 11 Sudoeste 0 -- -- 76
2018-09-01 04:00:00 16.4 10 Oeste 13 Sudoeste 0 -- -- 74
2018-09-01 03:00:00 16.5 8 Sudoeste 13 Oeste 0 -- -- 74
2018-09-01 02:00:00 17.3 9 Oeste 12 Oeste 0 -- -- 69
2018-09-01 01:00:00 18.3 6 Oeste 12 Oeste 0 -- -- 67
2018-09-01 00:00:00 19.6 6 Sudeste 16 Este 0 -- -- 64
2018-08-31 23:00:00 19.8 5 Este 15 Norte 0 -- -- 57
2018-08-31 22:00:00 22.7 3 Nordeste 6 Sur 0 -- -- 46
2018-08-31 21:00:00 24.4 5 Sudeste 14 Sudeste 0 -- -- 42
2018-08-31 20:00:00 27.3 10 Sudeste 18 Sudeste 0 -- -- 36
2018-08-31 19:00:00 29 10 Sudeste 23 Sudeste 0 -- -- 33
2018-08-31 18:00:00 29.8 9 Sudeste 17 Este 0 -- -- 30
2018-08-31 17:00:00 29.5 8 Sudeste 18 Este 0 -- -- 29
2018-08-31 16:00:00 28.6 8 Sur 17 Sur 0 -- -- 30
2018-08-31 15:00:00 26.9 9 Sudeste 20 Sur 0 -- -- 31
2018-08-31 14:00:00 25.4 11 Sur 21 Sudeste 0 -- -- 35
2018-08-31 13:00:00 24.4 9 Sudeste 18 Sur 0 -- -- 42
2018-08-31 12:00:00 22.2 9 Sur 17 Sur 0 -- -- 48
2018-08-31 11:00:00 20 9 Sur 17 Sur 0 -- -- 56
2018-08-31 10:00:00 17.8 6 Sudoeste 10 Sudoeste 0 -- -- 65
2018-08-31 09:00:00 15 4 Oeste 7 Oeste 0 -- -- 73
2018-08-31 08:00:00 10.5 0 Calma 5 Oeste 0 -- -- 84
2018-08-31 07:00:00 12.1 0 Calma 5 Noroeste 0 -- -- 78
2018-08-31 06:00:00 12.1 4 Norte 5 Noroeste 0 -- -- 77
2018-08-31 05:00:00 12.6 2 Sur 6 Norte 0 -- -- 76
2018-08-31 04:00:00 13 6 Norte 9 Norte 0 -- -- 73
2018-08-31 03:00:00 14.9 3 Sudoeste 15 Oeste 0 -- -- 64
2018-08-31 02:00:00 17.3 11 Oeste 14 Oeste 0 -- -- 53
2018-08-31 01:00:00 17.3 2 Sur 7 Norte 0 -- -- 52
2018-08-31 00:00:00 18.6 6 Sudeste 12 Norte 0 -- -- 61
2018-08-30 23:00:00 18.8 8 Nordeste 10 Nordeste 0 -- -- 61
2018-08-30 22:00:00 20.9 3 Nordeste 17 Noroeste 0 -- -- 55
2018-08-30 21:00:00 23.1 11 Noroeste 19 Noroeste 0 -- -- 49
2018-08-30 20:00:00 26.9 12 Noroeste 28 Norte 0 -- -- 31
2018-08-30 19:00:00 29.4 14 Noroeste 24 Norte 0 -- -- 30
2018-08-30 18:00:00 30.7 10 Noroeste 19 Noroeste 0 -- -- 33
2018-08-30 17:00:00 29.8 7 Nordeste 22 Nordeste 0 -- -- 38
2018-08-30 16:00:00 27.8 12 Sur 22 Sur 0 -- -- 42
2018-08-30 15:00:00 26.7 10 Sur 21 Sur 0 -- -- 44
2018-08-30 14:00:00 25.6 6 Sudeste 16 Sur 0 -- -- 46
2018-08-30 13:00:00 23.5 7 Sur 15 Sudeste 0 -- -- 50
2018-08-30 12:00:00 22.3 8 Sur 15 Sur 0 -- -- 53
2018-08-30 11:00:00 22.1 3 Sudoeste 10 Sur 0 -- -- 55
2018-08-30 10:00:00 18.2 4 Nordeste 8 Norte 0 -- -- 71
2018-08-30 09:00:00 12.6 5 Nordeste 8 Norte 0 -- -- 88
2018-08-30 08:00:00 11.2 4 Noroeste 8 Oeste 0 -- -- 94
2018-08-30 07:00:00 11.5 4 Noroeste 8 Noroeste 0 -- -- 94
2018-08-30 06:00:00 13.3 5 Oeste 10 Oeste 0 -- -- 90
2018-08-30 05:00:00 13.6 8 Oeste 9 Oeste 0 -- -- 88
2018-08-30 04:00:00 14 6 Sudoeste 13 Sudoeste 0 -- -- 87
2018-08-30 03:00:00 14.8 10 Sudoeste 13 Oeste 0 -- -- 84
2018-08-30 02:00:00 15.2 4 Sudoeste 7 Sudoeste 0 -- -- 77
2018-08-30 01:00:00 15.4 0 Calma 14 Nordeste 0 -- -- 75
2018-08-30 00:00:00 16.5 9 Nordeste 19 Sudeste 0 -- -- 71
2018-08-29 23:00:00 18 2 Oeste 9 Oeste 0 -- -- 66
2018-08-29 22:00:00 19.5 5 Sudoeste 12 Oeste 0 -- -- 64
2018-08-29 21:00:00 21.5 9 Noroeste 20 Noroeste 0 -- -- 57
2018-08-29 20:00:00 26.1 13 Norte 22 Norte 0 -- -- 46
2018-08-29 19:00:00 29.8 0 Calma 14 Noroeste 0 -- -- 35
2018-08-29 18:00:00 29.3 9 Norte 22 Norte 0 -- -- 35
2018-08-29 17:00:00 29 5 Oeste 17 Sudeste 0 -- -- 35
2018-08-29 16:00:00 28.9 6 Sudeste 15 Sudeste 0 -- -- 37
2018-08-29 15:00:00 26 10 Sudeste 21 Sur 0 -- -- 43
2018-08-29 14:00:00 24.9 6 Sur 19 Sur 0 -- -- 46
2018-08-29 13:00:00 24.5 9 Sur 16 Nordeste 0 -- -- 47
2018-08-29 12:00:00 24.5 5 Este 14 Nordeste 0 -- -- 47
2018-08-29 11:00:00 22.5 8 Norte 16 Norte 0 -- -- 56
2018-08-29 10:00:00 19.5 8 Norte 13 Nordeste 0 -- -- 69
2018-08-29 09:00:00 16.2 4 Norte 15 Norte 0 -- -- 79
2018-08-29 08:00:00 13.1 12 Norte 18 Norte 0 -- -- 91
2018-08-29 07:00:00 12.1 9 Norte 12 Norte 0 -- -- 93
2018-08-29 06:00:00 13.3 9 Noroeste 14 Noroeste 0 -- -- 90
2018-08-29 05:00:00 13.8 10 Norte 13 Norte 0 -- -- 89
2018-08-29 04:00:00 15.4 3 Sudeste 8 Sudeste 0 -- -- 82
2018-08-29 03:00:00 15.8 6 Norte 17 Noroeste 0 -- -- 81
2018-08-29 02:00:00 16.5 8 Norte 23 Norte 0 -- -- 81
2018-08-29 01:00:00 17.7 5 Noroeste 22 Noroeste 0 -- -- 76
2018-08-29 00:00:00 18.8 12 Noroeste 28 Noroeste 0 -- -- 71
2018-08-28 23:00:00 19.8 15 Noroeste 27 Oeste 0 -- -- 65
2018-08-28 22:00:00 20.8 15 Noroeste 27 Noroeste 0 -- -- 58
2018-08-28 21:00:00 22 13 Noroeste 30 Noroeste 0 -- -- 51
2018-08-28 20:00:00 25.1 17 Noroeste 33 Noroeste 0 -- -- 42
2018-08-28 19:00:00 28.3 15 Oeste 31 Noroeste 0 -- -- 35
2018-08-28 18:00:00 27.3 12 Noroeste 27 Noroeste 0 -- -- 33
2018-08-28 17:00:00 29.8 15 Noroeste 31 Noroeste 0 -- -- 30
2018-08-28 16:00:00 24.7 17 Sudeste 28 Sudeste 0.2 -- -- 49
2018-08-28 15:00:00 27 7 Oeste 26 Noroeste 0 -- -- 34
2018-08-28 14:00:00 28.7 11 Oeste 30 Sudoeste 0 -- -- 31
2018-08-28 13:00:00 27.1 12 Oeste 22 Norte 0 -- -- 33
2018-08-28 12:00:00 26.5 16 Norte 32 Norte 0 -- -- 36
2018-08-28 11:00:00 24.5 17 Noroeste 34 Noroeste 0 -- -- 42
2018-08-28 10:00:00 22.2 17 Noroeste 34 Oeste 0 -- -- 49
2018-08-28 09:00:00 20.7 4 Noroeste 11 Noroeste 0 -- -- 53
2018-08-28 08:00:00 18 5 Oeste 28 Noroeste 0 -- -- 58
2018-08-28 07:00:00 19.5 15 Noroeste 28 Noroeste 0 -- -- 54
2018-08-28 06:00:00 20.5 8 Noroeste 19 Noroeste 0 -- -- 49
2018-08-28 05:00:00 19.7 6 Norte 14 Norte 0 -- -- 47
2018-08-28 04:00:00 16.9 9 Nordeste 14 Este 0 -- -- 59
2018-08-28 03:00:00 16.1 9 Norte 11 Noroeste 0 -- -- 63
2018-08-28 02:00:00 19.2 10 Norte 12 Norte 0 -- -- 50
2018-08-28 01:00:00 18.1 9 Nordeste 17 Norte 0 -- -- 51
2018-08-28 00:00:00 19.8 6 Norte 8 Noroeste 0 -- -- 43
2018-08-27 23:00:00 22.2 3 Oeste 9 Norte 0 -- -- 39
2018-08-27 22:00:00 24.9 2 Nordeste 12 Norte 0 -- -- 32
2018-08-27 21:00:00 26.3 4 Norte 16 Oeste 0 -- -- 29
2018-08-27 20:00:00 27.5 10 Sudoeste 17 Sudoeste 0 -- -- 28
2018-08-27 19:00:00 28.8 7 Sudeste 21 Este 0 -- -- 37
2018-08-27 18:00:00 30.2 10 Sudeste 19 Sudeste 0 -- -- 34
2018-08-27 17:00:00 29.9 11 Sudeste 23 Sudeste 0 -- -- 37
2018-08-27 16:00:00 29.3 15 Sudeste 25 Sudeste 0 -- -- 38
2018-08-27 15:00:00 29.6 11 Sudeste -- -- 0 -- -- 38
2018-08-27 14:00:00 28.2 9 Sur -- -- 0 -- -- 40
2018-08-27 13:00:00 27 6 Sudeste 16 Sur 0 -- -- 43
2018-08-27 12:00:00 -- -- -- -- -- 0 -- -- --
2018-08-27 11:00:00 23.9 5 Este 11 Nordeste 0 -- -- 51
2018-08-27 10:00:00 21.3 5 Norte 7 Norte 0 -- -- 60
2018-08-27 09:00:00 17.5 2 Norte 11 Norte 0 -- -- 71
2018-08-27 08:00:00 11.7 10 Norte 13 Norte 0 -- -- 90
2018-08-27 07:00:00 13.5 0 Calma 8 Noroeste 0 -- -- 83
2018-08-27 06:00:00 14.7 5 Noroeste 12 Noroeste 0 -- -- 79
2018-08-27 05:00:00 14.9 5 Norte 9 Norte 0 -- -- 78
2018-08-27 04:00:00 15.8 4 Nordeste 8 Nordeste 0 -- -- 74
2018-08-27 03:00:00 15.9 7 Nordeste 8 Nordeste 0 -- -- 73
2018-08-27 02:00:00 17.2 4 Nordeste 7 Nordeste 0 -- -- 68
2018-08-27 01:00:00 18.4 2 Sur 6 Sudeste 0 -- -- 64
2018-08-27 00:00:00 19.6 5 Nordeste 7 Nordeste 0 -- -- 60
2018-08-26 23:00:00 20.3 3 Noroeste 8 Sudoeste 0 -- -- 56
2018-08-26 22:00:00 22 4 Oeste 19 Noroeste 0 -- -- 52
2018-08-26 21:00:00 24.2 9 Noroeste 16 Noroeste 0 -- -- 47
2018-08-26 20:00:00 28.3 9 Noroeste 24 Norte 0 -- -- 37
2018-08-26 19:00:00 30 14 Norte 23 Nordeste 0 -- -- 34
2018-08-26 18:00:00 30.4 5 Sudeste 15 Sur 0 -- -- 35
2018-08-26 17:00:00 29 8 Sudeste 17 Sudeste 0 -- -- 36
2018-08-26 16:00:00 27.5 9 Sudeste 20 Sudoeste 0 -- -- 38
2018-08-26 15:00:00 25.7 11 Sudeste 23 Sudeste 0 -- -- 42
2018-08-26 14:00:00 23.8 10 Sudeste 17 Sudeste 0 -- -- 47
2018-08-26 13:00:00 22 9 Sudeste 20 Sudoeste 0 -- -- 51
2018-08-26 12:00:00 19.7 10 Sur 19 Sur 0 -- -- 57
2018-08-26 11:00:00 17.2 7 Sur 15 Sur 0 -- -- 65
2018-08-26 10:00:00 16.8 3 Sudoeste 7 Norte 0 -- -- 68
2018-08-26 09:00:00 12 5 Norte 8 Norte 0 -- -- 83
2018-08-26 08:00:00 9.7 3 Norte 4 Norte 0 -- -- 91
2018-08-26 07:00:00 10.2 2 Norte 4 Oeste 0 -- -- 93
2018-08-26 06:00:00 11.4 4 Oeste 6 Sudoeste 0 -- -- 87
2018-08-26 05:00:00 12.1 3 Sudoeste 8 Sudoeste 0 -- -- 86
2018-08-26 04:00:00 12.6 4 Sudoeste 8 Sudoeste 0 -- -- 82
2018-08-26 03:00:00 13.8 5 Sudoeste 9 Sudoeste 0 -- -- 78
2018-08-26 02:00:00 14.8 7 Sudoeste 10 Sudoeste 0 -- -- 74
2018-08-26 01:00:00 15.5 3 Sur 15 Este 0 -- -- 72
2018-08-26 00:00:00 16.6 9 Este 20 Este 0 -- -- 67
2018-08-25 23:00:00 18.5 4 Sur 9 Sur 0 -- -- 57
2018-08-25 22:00:00 19.9 10 Noroeste 19 Noroeste 0 -- -- 53
2018-08-25 21:00:00 21.3 10 Noroeste 21 Noroeste 0 -- -- 50
2018-08-25 20:00:00 24.9 10 Noroeste 21 Noroeste 0 -- -- 41
2018-08-25 19:00:00 27.2 11 Noroeste 20 Norte 0 -- -- 34
2018-08-25 18:00:00 27.9 10 Noroeste 30 Oeste 0 -- -- 33
2018-08-25 17:00:00 28.4 14 Norte 25 Norte 0 -- -- 28
2018-08-25 16:00:00 27.8 8 Noroeste 19 Sur 0 -- -- 27
2018-08-25 15:00:00 25.2 7 Sudoeste 18 Sur 0 -- -- 39
2018-08-25 14:00:00 24 9 Sur 17 Sudeste 0 -- -- 43
2018-08-25 13:00:00 21.9 9 Sudeste 19 Sur 0 -- -- 51
2018-08-25 12:00:00 19.5 9 Sur 15 Sudeste 0 -- -- 60
2018-08-25 11:00:00 17.7 6 Sur 13 Sur 0 -- -- 66
2018-08-25 10:00:00 15.9 4 Sur 7 Sur 0 -- -- 74
2018-08-25 09:00:00 13 2 Nordeste 7 Norte 0 -- -- 77
2018-08-25 08:00:00 8.8 2 Norte 5 Norte 0 -- -- 94
2018-08-25 07:00:00 9.4 2 Sur 6 Oeste 0 -- -- 92
2018-08-25 06:00:00 11.3 4 Noroeste 14 Oeste 0 -- -- 86
2018-08-25 05:00:00 12.3 6 Oeste 9 Oeste 0 -- -- 86
2018-08-25 04:00:00 12.1 0 Calma 10 Sudoeste 0 -- -- 85
2018-08-25 03:00:00 14.1 6 Sudoeste 17 Sudoeste 0 -- -- 82
2018-08-25 02:00:00 14.6 12 Oeste 17 Oeste 0 -- -- 75
2018-08-25 01:00:00 15.5 4 Norte 6 Norte 0 -- -- 63
2018-08-25 00:00:00 17.4 3 Sudeste 12 Sudeste 0 -- -- 57